createdAt,value
2023-08-17T00:02:09.214Z,48.14
2023-08-17T00:04:37.405Z,48.11
2023-08-17T00:07:05.310Z,48.15
2023-08-17T00:09:34.562Z,48.02
2023-08-17T00:12:02.996Z,48.16
2023-08-17T00:14:32.329Z,48.08
2023-08-17T00:17:00.290Z,48.20
2023-08-17T00:19:29.162Z,48.10
2023-08-17T00:21:57.306Z,47.92
2023-08-17T00:24:25.351Z,48.02
2023-08-17T00:26:53.474Z,48.04
2023-08-17T00:29:23.577Z,48.01
2023-08-17T00:31:51.747Z,47.83
2023-08-17T00:34:20.328Z,47.77
2023-08-17T00:36:49.153Z,47.89
2023-08-17T00:39:17.524Z,47.71
2023-08-17T00:41:44.812Z,47.79
2023-08-17T00:44:14.134Z,47.69
2023-08-17T00:46:41.885Z,47.71
2023-08-17T00:49:10.391Z,47.74
2023-08-17T00:51:38.555Z,47.65
2023-08-17T00:54:07.814Z,47.85
2023-08-17T00:56:36.029Z,47.52
2023-08-17T00:59:03.972Z,47.74
2023-08-17T01:01:32.304Z,47.69
2023-08-17T01:04:00.413Z,47.61
2023-08-17T01:06:28.509Z,47.73
2023-08-17T01:08:57.038Z,47.69
2023-08-17T01:11:36.405Z,47.73
2023-08-17T01:14:40.936Z,47.62
2023-08-17T01:17:17.905Z,47.75
2023-08-17T01:19:47.332Z,47.61
2023-08-17T01:22:23.251Z,47.49
2023-08-17T01:24:59.051Z,47.57
2023-08-17T01:27:28.341Z,47.47
2023-08-17T01:29:55.578Z,47.58
2023-08-17T01:32:35.361Z,47.53
2023-08-17T01:35:39.372Z,47.70
2023-08-17T01:38:14.253Z,47.67
2023-08-17T01:40:45.043Z,47.57
2023-08-17T01:43:14.527Z,47.65
2023-08-17T01:45:42.980Z,47.77
2023-08-17T01:48:11.234Z,47.58
2023-08-17T01:50:41.476Z,47.45
2023-08-17T01:53:10.206Z,47.50
2023-08-17T01:55:38.485Z,47.48
2023-08-17T01:58:09.078Z,47.35
2023-08-17T02:00:37.913Z,47.39
2023-08-17T02:03:06.324Z,47.37
2023-08-17T02:05:34.271Z,47.43
2023-08-17T02:08:02.220Z,47.36
2023-08-17T02:10:31.981Z,47.19
2023-08-17T02:13:12.367Z,47.28
2023-08-17T02:15:45.244Z,47.11
2023-08-17T02:18:13.793Z,47.15
2023-08-17T02:20:41.952Z,47.21
2023-08-17T02:23:10.653Z,47.15
2023-08-17T02:25:42.648Z,47.16
2023-08-17T02:28:11.072Z,46.86
2023-08-17T02:30:38.738Z,46.85
2023-08-17T02:33:06.086Z,46.92
2023-08-17T02:35:34.130Z,46.84
2023-08-17T02:38:01.692Z,46.72
2023-08-17T02:40:29.288Z,46.61
2023-08-17T02:42:57.041Z,46.67
2023-08-17T02:45:25.291Z,46.60
2023-08-17T02:47:53.622Z,46.80
2023-08-17T02:50:21.550Z,46.58
2023-08-17T02:52:49.401Z,46.55
2023-08-17T02:55:17.435Z,46.50
2023-08-17T02:57:46.099Z,46.67
2023-08-17T03:00:14.147Z,46.47
2023-08-17T03:02:42.209Z,46.59
2023-08-17T03:05:10.529Z,46.41
2023-08-17T03:07:38.147Z,46.31
2023-08-17T03:10:06.818Z,46.32
2023-08-17T03:12:34.657Z,46.38
2023-08-17T03:15:02.747Z,46.21
2023-08-17T03:17:30.793Z,46.18
2023-08-17T03:20:01.208Z,46.28
2023-08-17T03:22:30.201Z,46.16
2023-08-17T03:24:58.990Z,46.07
2023-08-17T03:27:30.465Z,46.17
2023-08-17T03:29:57.642Z,46.11
2023-08-17T03:32:25.743Z,46.06
2023-08-17T03:34:53.522Z,46.14
2023-08-17T03:37:21.336Z,46.04
2023-08-17T03:39:49.848Z,45.95
2023-08-17T03:42:17.875Z,45.92
2023-08-17T03:44:45.797Z,45.89
2023-08-17T03:47:14.167Z,45.93
2023-08-17T03:49:43.172Z,45.81
2023-08-17T03:52:10.854Z,45.79
2023-08-17T03:54:38.799Z,45.92
2023-08-17T03:57:07.058Z,45.84
2023-08-17T03:59:37.146Z,45.71
2023-08-17T04:02:05.162Z,45.83
2023-08-17T04:04:33.908Z,45.80
2023-08-17T04:07:02.532Z,45.91
2023-08-17T04:09:32.536Z,45.81
2023-08-17T04:12:00.338Z,45.83
2023-08-17T04:14:28.387Z,45.84
2023-08-17T04:16:58.644Z,45.90
2023-08-17T04:19:25.877Z,45.94
2023-08-17T04:21:55.501Z,46.01
2023-08-17T04:24:23.711Z,46.03
2023-08-17T04:26:53.746Z,46.06
2023-08-17T04:29:21.630Z,46.00
2023-08-17T04:31:49.973Z,45.84
2023-08-17T04:34:18.603Z,46.05
2023-08-17T04:36:46.692Z,46.07
2023-08-17T04:39:15.575Z,46.08
2023-08-17T04:41:44.722Z,46.01
2023-08-17T04:44:13.946Z,46.18
2023-08-17T04:46:43.641Z,46.08
2023-08-17T04:49:11.668Z,46.09
2023-08-17T04:51:40.146Z,46.22
2023-08-17T04:54:09.028Z,46.19
2023-08-17T04:56:37.271Z,46.32
2023-08-17T04:59:06.115Z,46.13
2023-08-17T05:01:34.096Z,46.43
2023-08-17T05:04:04.542Z,46.40
2023-08-17T05:06:33.603Z,46.31
2023-08-17T05:09:02.027Z,46.32
2023-08-17T05:11:29.931Z,46.30
2023-08-17T05:13:57.952Z,46.39
2023-08-17T05:16:25.708Z,46.19
2023-08-17T05:18:52.750Z,46.12
2023-08-17T05:21:20.701Z,46.42
2023-08-17T05:23:49.462Z,46.32
2023-08-17T05:26:16.672Z,46.25
2023-08-17T05:28:46.702Z,46.55
2023-08-17T05:31:13.938Z,46.37
2023-08-17T05:33:45.223Z,46.47
2023-08-17T05:36:14.952Z,46.33
2023-08-17T05:38:43.645Z,46.31
2023-08-17T05:41:12.676Z,46.25
2023-08-17T05:43:40.553Z,46.22
2023-08-17T05:46:07.519Z,46.20
2023-08-17T05:48:35.276Z,46.10
2023-08-17T05:51:02.600Z,46.02
2023-08-17T05:53:30.985Z,46.00
2023-08-17T05:55:59.629Z,46.02
2023-08-17T05:58:30.113Z,46.04
2023-08-17T06:01:07.150Z,45.87
2023-08-17T06:03:36.329Z,45.85
2023-08-17T06:06:05.159Z,46.04
2023-08-17T06:08:33.424Z,45.94
2023-08-17T06:11:01.997Z,45.81
2023-08-17T06:13:30.625Z,45.85
2023-08-17T06:15:59.757Z,45.88
2023-08-17T06:18:27.544Z,45.66
2023-08-17T06:20:56.062Z,45.77
2023-08-17T06:23:24.344Z,46.00
2023-08-17T06:25:52.317Z,45.77
2023-08-17T06:28:20.273Z,45.85
2023-08-17T06:30:48.196Z,45.73
2023-08-17T06:33:16.209Z,45.80
2023-08-17T06:35:44.006Z,46.03
2023-08-17T06:38:16.643Z,46.00
2023-08-17T06:40:45.092Z,45.96
2023-08-17T06:43:14.364Z,45.87
2023-08-17T06:45:43.002Z,45.71
2023-08-17T06:48:10.125Z,45.81
2023-08-17T06:50:37.718Z,45.79
2023-08-17T06:53:05.894Z,45.56
2023-08-17T06:55:32.928Z,45.62
2023-08-17T06:58:00.307Z,45.68
2023-08-17T07:00:27.590Z,45.55
2023-08-17T07:02:57.834Z,45.45
2023-08-17T07:05:26.753Z,45.36
2023-08-17T07:07:57.086Z,45.38
2023-08-17T07:10:24.350Z,45.38
2023-08-17T07:12:51.495Z,45.46
2023-08-17T07:15:18.703Z,45.32
2023-08-17T07:17:45.644Z,45.15
2023-08-17T07:22:43.259Z,45.26
2023-08-17T07:25:10.763Z,45.39
2023-08-17T07:27:37.953Z,45.14
2023-08-17T07:30:05.578Z,45.04
2023-08-17T07:32:34.624Z,45.22
2023-08-17T07:35:01.648Z,45.18
2023-08-17T07:37:34.381Z,45.29
2023-08-17T07:40:06.312Z,45.20
2023-08-17T07:42:33.934Z,45.13
2023-08-17T07:45:02.831Z,45.37
2023-08-17T07:47:30.119Z,45.16
2023-08-17T07:49:59.117Z,45.28
2023-08-17T07:52:26.147Z,45.30
2023-08-17T07:54:53.168Z,45.25
2023-08-17T07:57:20.166Z,45.47
2023-08-17T07:59:47.106Z,45.29
2023-08-17T08:02:16.897Z,45.18
2023-08-17T08:04:44.574Z,45.40
2023-08-17T08:07:11.904Z,45.40
2023-08-17T08:09:38.882Z,45.13
2023-08-17T08:12:09.141Z,45.10
2023-08-17T08:14:36.935Z,45.33
2023-08-17T08:17:04.045Z,45.24
2023-08-17T08:19:34.078Z,45.10
2023-08-17T08:22:02.683Z,45.14
2023-08-17T08:24:38.102Z,45.27
2023-08-17T08:27:06.574Z,45.27
2023-08-17T08:29:34.676Z,45.16
2023-08-17T08:32:04.141Z,45.17
2023-08-17T08:34:31.583Z,45.11
2023-08-17T08:36:59.031Z,45.15
2023-08-17T08:39:29.406Z,45.21
2023-08-17T08:41:56.518Z,45.32
2023-08-17T08:44:24.225Z,45.45
2023-08-17T08:46:51.697Z,45.19
2023-08-17T08:49:22.536Z,45.34
2023-08-17T08:51:52.649Z,45.46
2023-08-17T08:54:25.808Z,45.40
2023-08-17T08:57:02.663Z,45.52
2023-08-17T08:59:30.085Z,45.76
2023-08-17T09:01:59.360Z,46.07
2023-08-17T09:04:27.463Z,46.30
2023-08-17T09:06:55.740Z,46.48
2023-08-17T09:09:29.625Z,46.67
2023-08-17T09:11:59.695Z,46.56
2023-08-17T09:14:29.803Z,46.34
2023-08-17T09:17:00.292Z,46.41
2023-08-17T09:19:27.456Z,46.49
2023-08-17T09:21:54.717Z,46.48
2023-08-17T09:24:21.815Z,46.29
2023-08-17T09:26:50.885Z,46.58
2023-08-17T09:29:20.334Z,46.64
2023-08-17T09:31:48.257Z,46.48
2023-08-17T09:34:18.333Z,46.76
2023-08-17T09:36:48.556Z,46.59
2023-08-17T09:39:19.378Z,46.76
2023-08-17T09:41:46.756Z,46.59
2023-08-17T09:44:13.909Z,46.77
2023-08-17T09:46:44.717Z,46.72
2023-08-17T09:49:12.331Z,46.59
2023-08-17T09:51:43.108Z,46.62
2023-08-17T09:54:22.234Z,46.73
2023-08-17T09:56:53.842Z,46.67
2023-08-17T09:59:22.188Z,46.74
2023-08-17T10:01:56.687Z,46.69
2023-08-17T10:04:25.176Z,46.68
2023-08-17T10:07:01.490Z,46.74
2023-08-17T10:09:36.458Z,46.60
2023-08-17T10:12:11.330Z,46.89
2023-08-17T10:14:47.835Z,46.85
2023-08-17T10:17:20.707Z,46.73
2023-08-17T10:19:53.558Z,46.67
2023-08-17T10:22:25.313Z,46.69
2023-08-17T10:24:57.463Z,46.75
2023-08-17T10:27:24.877Z,46.65
2023-08-17T10:29:52.489Z,46.68
2023-08-17T10:32:27.551Z,46.87
2023-08-17T10:34:55.746Z,46.86
2023-08-17T10:37:28.634Z,46.78
2023-08-17T10:39:59.227Z,46.91
2023-08-17T10:42:37.920Z,46.98
2023-08-17T10:45:32.780Z,47.08
2023-08-17T10:48:10.158Z,47.14
2023-08-17T10:50:43.623Z,46.95
2023-08-17T10:53:14.237Z,47.08
2023-08-17T10:55:53.282Z,47.16
2023-08-17T10:58:26.114Z,47.04
2023-08-17T11:00:58.570Z,47.10
2023-08-17T11:03:30.402Z,46.98
2023-08-17T11:05:59.086Z,47.22
2023-08-17T11:08:33.833Z,47.07
2023-08-17T11:11:14.975Z,47.24
2023-08-17T11:13:46.155Z,47.26
2023-08-17T11:16:18.724Z,47.07
2023-08-17T11:18:46.933Z,47.07
2023-08-17T11:21:24.566Z,47.14
2023-08-17T11:23:52.611Z,46.79
2023-08-17T11:26:20.621Z,46.73
2023-08-17T11:28:51.067Z,46.66
2023-08-17T11:31:19.898Z,46.71
2023-08-17T11:33:48.654Z,46.87
2023-08-17T11:36:27.313Z,46.57
2023-08-17T11:38:54.670Z,46.71
2023-08-17T11:41:24.271Z,46.59
2023-08-17T11:43:56.051Z,46.60
2023-08-17T11:46:28.961Z,46.63
2023-08-17T11:49:00.866Z,46.49
2023-08-17T11:51:34.676Z,46.64
2023-08-17T11:54:05.119Z,46.39
2023-08-17T11:56:32.434Z,46.68
2023-08-17T11:59:00.087Z,46.45
2023-08-17T12:01:28.598Z,46.23
2023-08-17T12:03:56.580Z,46.36
2023-08-17T12:06:23.819Z,46.53
2023-08-17T12:08:51.796Z,46.34
2023-08-17T12:11:19.831Z,46.33
2023-08-17T12:14:01.039Z,46.60
2023-08-17T12:16:28.046Z,46.35
2023-08-17T12:18:55.939Z,46.49
2023-08-17T12:21:24.764Z,46.54
2023-08-17T12:23:54.488Z,46.13
2023-08-17T12:26:24.674Z,46.12
2023-08-17T12:28:51.786Z,46.08
2023-08-17T12:31:25.091Z,45.86
2023-08-17T12:33:53.060Z,45.83
2023-08-17T12:36:21.890Z,45.67
2023-08-17T12:38:49.840Z,45.76
2023-08-17T12:41:17.493Z,45.59
2023-08-17T12:43:45.545Z,45.54
2023-08-17T12:46:14.016Z,45.40
2023-08-17T12:48:41.516Z,45.44
2023-08-17T12:51:09.710Z,45.33
2023-08-17T12:53:38.284Z,45.24
2023-08-17T12:56:05.411Z,45.00
2023-08-17T12:58:32.517Z,45.10
2023-08-17T13:00:59.652Z,45.04
2023-08-17T13:03:26.732Z,45.05
2023-08-17T13:05:53.945Z,44.92
2023-08-17T13:08:21.092Z,44.69
2023-08-17T13:10:48.124Z,44.85
2023-08-17T13:13:15.906Z,44.60
2023-08-17T13:15:43.346Z,44.65
2023-08-17T13:18:10.642Z,44.43
2023-08-17T13:20:39.024Z,44.37
2023-08-17T13:23:06.473Z,44.35
2023-08-17T13:25:33.897Z,44.24
2023-08-17T13:28:01.035Z,44.35
2023-08-17T13:30:28.996Z,44.03
2023-08-17T13:32:59.580Z,44.47
2023-08-17T13:35:28.830Z,44.57
2023-08-17T13:37:56.157Z,44.53
2023-08-17T13:40:26.725Z,44.07
2023-08-17T13:42:54.746Z,43.91
2023-08-17T13:45:22.200Z,43.89
2023-08-17T13:47:49.998Z,43.66
2023-08-17T13:50:17.234Z,43.49
2023-08-17T13:52:44.230Z,43.75
2023-08-17T13:55:11.559Z,43.47
2023-08-17T13:57:38.573Z,43.43
2023-08-17T14:00:06.678Z,43.32
2023-08-17T14:02:34.636Z,43.36
2023-08-17T14:05:03.090Z,43.22
2023-08-17T14:07:31.900Z,43.13
2023-08-17T14:10:08.129Z,43.18
2023-08-17T14:12:45.979Z,43.32
2023-08-17T14:15:13.833Z,43.05
2023-08-17T14:17:41.546Z,42.95
2023-08-17T14:20:09.855Z,43.03
2023-08-17T14:22:37.467Z,42.76
2023-08-17T14:25:08.923Z,42.87
2023-08-17T14:27:36.941Z,42.92
2023-08-17T14:30:07.374Z,42.81
2023-08-17T14:32:35.551Z,42.93
2023-08-17T14:35:03.124Z,42.69
2023-08-17T14:37:30.476Z,42.97
2023-08-17T14:39:58.155Z,42.98
2023-08-17T14:42:25.841Z,43.02
2023-08-17T14:44:53.155Z,42.94
2023-08-17T14:47:21.700Z,43.22
2023-08-17T14:49:48.934Z,42.84
2023-08-17T14:52:16.251Z,42.77
2023-08-17T14:54:43.712Z,43.33
2023-08-17T14:57:10.858Z,43.08
2023-08-17T14:59:39.329Z,42.98
2023-08-17T15:02:06.346Z,42.71
2023-08-17T15:04:34.500Z,42.99
2023-08-17T15:07:02.736Z,42.84
2023-08-17T15:09:30.870Z,42.97
2023-08-17T15:11:58.859Z,42.80
2023-08-17T15:14:26.177Z,42.72
2023-08-17T15:16:53.805Z,42.80
2023-08-17T15:19:34.551Z,42.70
2023-08-17T15:22:07.334Z,42.85
2023-08-17T15:24:34.770Z,42.61
2023-08-17T15:27:01.859Z,42.91
2023-08-17T15:29:29.001Z,42.64
2023-08-17T15:31:57.780Z,42.73
2023-08-17T15:34:24.928Z,42.58
2023-08-17T15:36:51.980Z,42.71
2023-08-17T15:39:19.550Z,42.91
2023-08-17T15:41:47.386Z,42.95
2023-08-17T15:44:14.452Z,43.08
2023-08-17T15:46:41.632Z,42.76
2023-08-17T15:49:08.868Z,42.82
2023-08-17T15:51:36.015Z,42.60
2023-08-17T15:54:03.174Z,42.58
2023-08-17T15:56:31.275Z,42.57
2023-08-17T15:58:58.358Z,42.60
2023-08-17T16:01:25.373Z,42.38
2023-08-17T16:03:53.027Z,42.25
2023-08-17T16:06:24.335Z,42.08
2023-08-17T16:08:53.233Z,42.21
2023-08-17T16:11:20.578Z,42.27
2023-08-17T16:13:47.583Z,42.20
2023-08-17T16:16:14.773Z,42.25
2023-08-17T16:18:42.482Z,42.38
2023-08-17T16:23:39.671Z,42.43
2023-08-17T16:26:06.871Z,42.42
2023-08-17T16:28:33.904Z,42.65
2023-08-17T16:31:04.674Z,42.66
2023-08-17T16:33:32.140Z,42.37
2023-08-17T16:35:59.207Z,42.55
2023-08-17T16:38:26.255Z,42.78
2023-08-17T16:40:53.299Z,42.75
2023-08-17T16:43:23.165Z,42.80
2023-08-17T16:45:54.376Z,42.90
2023-08-17T16:48:25.328Z,43.07
2023-08-17T16:50:56.701Z,43.44
2023-08-17T16:53:24.601Z,43.23
2023-08-17T16:55:55.594Z,43.40
2023-08-17T16:58:23.359Z,43.59
2023-08-17T17:00:50.505Z,43.52
2023-08-17T17:03:17.670Z,43.70
2023-08-17T17:05:44.776Z,43.88
2023-08-17T17:08:11.928Z,43.78
2023-08-17T17:10:41.436Z,43.99
2023-08-17T17:13:09.401Z,43.99
2023-08-17T17:15:38.354Z,44.03
2023-08-17T17:18:05.956Z,44.19
2023-08-17T17:20:33.197Z,44.12
2023-08-17T17:23:02.554Z,44.44
2023-08-17T17:25:29.631Z,44.61
2023-08-17T17:27:56.738Z,44.42
2023-08-17T17:30:30.139Z,44.69
2023-08-17T17:32:57.194Z,44.76
2023-08-17T17:35:25.053Z,45.04
2023-08-17T17:37:52.622Z,45.39
2023-08-17T17:40:20.139Z,45.52
2023-08-17T17:42:47.116Z,45.81
2023-08-17T17:45:15.418Z,45.96
2023-08-17T17:47:47.839Z,46.45
2023-08-17T17:50:16.712Z,47.15
2023-08-17T17:52:46.136Z,47.42
2023-08-17T17:55:14.702Z,47.54
2023-08-17T17:57:43.035Z,48.03
2023-08-17T18:00:14.722Z,48.01
2023-08-17T18:02:43.174Z,48.02
2023-08-17T18:05:12.407Z,48.32
2023-08-17T18:07:40.839Z,48.36
2023-08-17T18:10:08.890Z,48.49
2023-08-17T18:12:35.903Z,48.26
2023-08-17T18:15:03.742Z,48.33
2023-08-17T18:17:33.804Z,48.09
2023-08-17T18:20:01.206Z,48.09
2023-08-17T18:22:28.312Z,48.11
2023-08-17T18:24:56.570Z,48.03
2023-08-17T18:27:25.187Z,48.20
2023-08-17T18:29:53.646Z,47.96
2023-08-17T18:32:21.045Z,48.00
2023-08-17T18:34:53.940Z,47.92
2023-08-17T18:37:21.589Z,47.79
2023-08-17T18:39:49.250Z,47.65
2023-08-17T18:42:18.495Z,47.83
2023-08-17T18:44:47.031Z,47.81
2023-08-17T18:47:18.082Z,47.80
2023-08-17T18:49:45.485Z,47.68
2023-08-17T18:52:12.985Z,47.91
2023-08-17T18:54:40.176Z,47.64
2023-08-17T18:57:08.216Z,47.81
2023-08-17T18:59:35.457Z,47.75
2023-08-17T19:02:02.955Z,47.56
2023-08-17T19:04:30.540Z,47.75
2023-08-17T19:06:57.726Z,47.58
2023-08-17T19:09:25.282Z,47.43
2023-08-17T19:11:52.751Z,47.49
2023-08-17T19:14:20.202Z,47.41
2023-08-17T19:16:47.311Z,47.38
2023-08-17T19:19:14.834Z,47.47
2023-08-17T19:21:42.517Z,47.41
2023-08-17T19:24:10.025Z,47.18
2023-08-17T19:26:37.674Z,47.26
2023-08-17T19:29:05.078Z,47.16
2023-08-17T19:31:33.861Z,47.00
2023-08-17T19:34:02.058Z,46.89
2023-08-17T19:36:29.127Z,47.17
2023-08-17T19:38:56.562Z,46.97
2023-08-17T19:41:23.771Z,46.95
2023-08-17T19:43:51.708Z,46.95
2023-08-17T19:46:18.955Z,46.73
2023-08-17T19:48:46.119Z,46.66
2023-08-17T19:51:13.644Z,46.52
2023-08-17T19:53:40.732Z,46.49
2023-08-17T19:56:10.271Z,46.52
2023-08-17T19:58:38.720Z,46.41
2023-08-17T20:01:08.114Z,46.50
2023-08-17T20:03:35.982Z,46.34
2023-08-17T20:06:03.925Z,46.45
2023-08-17T20:08:31.114Z,46.31
2023-08-17T20:10:58.226Z,46.15
2023-08-17T20:13:25.630Z,46.06
2023-08-17T20:15:56.343Z,46.01
2023-08-17T20:18:24.021Z,45.95
2023-08-17T20:20:57.297Z,45.95
2023-08-17T20:23:25.619Z,45.92
2023-08-17T20:25:55.539Z,46.01
2023-08-17T20:28:24.821Z,45.72
2023-08-17T20:30:59.983Z,45.68
2023-08-17T20:33:29.019Z,45.56
2023-08-17T20:35:56.237Z,45.44
2023-08-17T20:38:24.167Z,45.20
2023-08-17T20:40:52.274Z,45.09
2023-08-17T20:43:20.021Z,45.09
2023-08-17T20:45:47.448Z,45.08
2023-08-17T20:48:15.556Z,45.31
2023-08-17T20:50:47.760Z,45.47
2023-08-17T20:53:16.332Z,45.44
2023-08-17T20:55:44.565Z,45.67
2023-08-17T20:58:11.985Z,45.83
2023-08-17T21:00:39.212Z,45.83
2023-08-17T21:03:07.310Z,45.99
2023-08-17T21:05:34.706Z,46.04
2023-08-17T21:08:03.288Z,46.33
2023-08-17T21:10:31.023Z,46.39
2023-08-17T21:12:58.901Z,46.63
2023-08-17T21:15:25.986Z,46.51
2023-08-17T21:17:53.121Z,46.51
2023-08-17T21:20:20.195Z,46.38
2023-08-17T21:22:51.392Z,46.21
2023-08-17T21:25:20.208Z,46.26
2023-08-17T21:27:48.261Z,46.02
2023-08-17T21:30:16.772Z,46.04
2023-08-17T21:32:44.394Z,46.00
2023-08-17T21:35:13.159Z,45.80
2023-08-17T21:37:44.296Z,45.93
2023-08-17T21:40:13.171Z,45.73
2023-08-17T21:42:40.329Z,45.74
2023-08-17T21:45:08.440Z,45.76
2023-08-17T21:47:35.547Z,45.66
2023-08-17T21:50:03.334Z,45.62
2023-08-17T21:52:30.784Z,45.65
2023-08-17T21:54:58.139Z,45.65
2023-08-17T21:57:25.164Z,45.70
2023-08-17T21:59:53.329Z,45.69
2023-08-17T22:02:21.111Z,45.65
2023-08-17T22:04:48.651Z,45.64
2023-08-17T22:07:16.341Z,45.77
2023-08-17T22:09:43.770Z,45.79
2023-08-17T22:12:10.778Z,45.75
2023-08-17T22:14:38.505Z,45.92
2023-08-17T22:17:05.569Z,45.96
2023-08-17T22:19:33.532Z,45.80
2023-08-17T22:22:00.523Z,45.90
2023-08-17T22:24:34.784Z,45.92
2023-08-17T22:27:08.494Z,46.09
2023-08-17T22:29:35.556Z,45.92
2023-08-17T22:32:03.160Z,45.82
2023-08-17T22:34:30.480Z,45.89
2023-08-17T22:36:57.486Z,45.92
2023-08-17T22:39:24.954Z,45.79
2023-08-17T22:41:53.641Z,45.87
2023-08-17T22:44:20.682Z,45.86
2023-08-17T22:46:48.382Z,45.73
2023-08-17T22:49:15.742Z,45.82
2023-08-17T22:51:42.959Z,45.83
2023-08-17T22:54:10.402Z,45.77
2023-08-17T22:56:38.536Z,45.84
2023-08-17T22:59:07.257Z,45.69
2023-08-17T23:01:34.593Z,45.73
2023-08-17T23:04:02.387Z,45.80
2023-08-17T23:06:30.535Z,45.76
2023-08-17T23:08:57.509Z,45.79
2023-08-17T23:11:24.667Z,45.94
2023-08-17T23:13:51.820Z,45.90
2023-08-17T23:16:18.921Z,45.77
2023-08-17T23:18:46.175Z,45.98
2023-08-17T23:21:13.682Z,45.84
2023-08-17T23:23:40.764Z,45.81
2023-08-17T23:26:08.362Z,45.90
2023-08-17T23:28:35.632Z,45.98
2023-08-17T23:31:03.073Z,46.19
2023-08-17T23:33:30.805Z,46.25
2023-08-17T23:35:58.081Z,46.22
2023-08-17T23:38:25.384Z,46.12
2023-08-17T23:40:52.954Z,46.29
2023-08-17T23:43:20.718Z,46.01
2023-08-17T23:45:47.833Z,46.18
2023-08-17T23:48:14.907Z,46.27
2023-08-17T23:50:42.863Z,46.32
2023-08-17T23:53:09.952Z,46.34
2023-08-17T23:55:37.091Z,46.25
2023-08-17T23:58:06.114Z,46.06
